Wetterdaten: Woche 07.09.09 - 13.09.09 (KW37)
Datum Zeit Temp. Innen Temp. Aussen UV X Diff Temp. Feuchte Inne Feuchte Auss Sonnenschein Luftdruck Regen ab 0,1 Wind Sonnenschein Windben
07.09.2009 00:00 19,6 C 11,9 C 0,0 UV-I 0,1 C 58 % 87 % 0 % 1023,0 hPa 0,0 l/m 0,5 km/h (0 Bft) 0,00 h 1,1 km/h (1 Bft)
07.09.2009 01:00 19,6 C 12,2 C 0,0 UV-I 0,1 C 58 % 88 % 0 % 1022,8 hPa 0,0 l/m 0,1 km/h (0 Bft) 0,00 h 0,2 km/h (0 Bft)
07.09.2009 02:00 19,6 C 12,3 C 0,0 UV-I 0,0 C 58 % 88 % 0 % 1022,5 hPa 0,0 l/m 0,0 km/h (0 Bft) 0,00 h 0,0 km/h (0 Bft)
07.09.2009 03:00 19,5 C 12,1 C 0,0 UV-I 0,0 C 58 % 88 % 0 % 1022,2 hPa 0,0 l/m 0,0 km/h (0 Bft) 0,00 h 0,2 km/h (0 Bft)
07.09.2009 04:00 19,3 C 11,8 C 0,0 UV-I 0,0 C 58 % 88 % 0 % 1021,9 hPa 0,0 l/m 1,1 km/h (0 Bft) 0,00 h 2,4 km/h (1 Bft)
07.09.2009 05:00 19,1 C 11,2 C 0,0 UV-I 0,0 C 58 % 89 % 0 % 1021,6 hPa 0,0 l/m 0,3 km/h (0 Bft) 0,00 h 1,9 km/h (1 Bft)
07.09.2009 06:00 18,9 C 10,6 C 0,0 UV-I 0,0 C 57 % 89 % 0 % 1021,2 hPa 0,0 l/m 1,1 km/h (0 Bft) 0,00 h 3,1 km/h (1 Bft)
07.09.2009 07:00 18,7 C 10,3 C 0,0 UV-I 0,0 C 57 % 91 % 0 % 1021,5 hPa 0,0 l/m 1,3 km/h (1 Bft) 0,00 h 3,0 km/h (1 Bft)
07.09.2009 08:00 18,8 C 11,2 C 0,2 UV-I 0,7 C 58 % 91 % 19 % 1021,9 hPa 0,0 l/m 3,1 km/h (1 Bft) 0,00 h 6,0 km/h (2 Bft)
07.09.2009 09:00 19,1 C 12,9 C 0,9 UV-I 1,4 C 59 % 89 % 39 % 1022,1 hPa 0,0 l/m 2,0 km/h (1 Bft) 0,00 h 4,0 km/h (1 Bft)
07.09.2009 10:00 19,4 C 15,0 C 3,6 UV-I 3,6 C 59 % 86 % 87 % 1022,7 hPa 0,0 l/m 4,1 km/h (1 Bft) 0,63 h 7,4 km/h (2 Bft)
07.09.2009 11:00 20,0 C 18,6 C 5,7 UV-I 4,6 C 59 % 76 % 95 % 1022,7 hPa 0,0 l/m 2,6 km/h (1 Bft) 0,83 h 5,4 km/h (1 Bft)
07.09.2009 12:00 20,6 C 21,6 C 9,0 UV-I 4,8 C 58 % 65 % 98 % 1022,7 hPa 0,0 l/m 3,2 km/h (1 Bft) 0,90 h 6,7 km/h (2 Bft)
07.09.2009 13:00 21,4 C 23,2 C 3,4 UV-I 2,0 C 57 % 57 % 55 % 1022,8 hPa 0,0 l/m 2,8 km/h (1 Bft) 0,17 h 5,7 km/h (1 Bft)
07.09.2009 14:00 22,3 C 23,9 C 5,5 UV-I 3,6 C 55 % 53 % 90 % 1024,3 hPa 0,0 l/m 2,9 km/h (1 Bft) 0,67 h 5,5 km/h (1 Bft)
07.09.2009 15:00 23,9 C 25,8 C 5,5 UV-I 4,1 C 50 % 48 % 100 % 1025,1 hPa 0,0 l/m 3,8 km/h (1 Bft) 0,90 h 8,9 km/h (2 Bft)
07.09.2009 16:00 25,5 C 26,8 C 2,0 UV-I 4,8 C 46 % 44 % 100 % 1025,6 hPa 0,0 l/m 2,8 km/h (1 Bft) 0,90 h 5,3 km/h (1 Bft)
07.09.2009 17:00 25,7 C 26,5 C 1,5 UV-I 4,1 C 45 % 43 % 96 % 1024,0 hPa 0,0 l/m 2,8 km/h (1 Bft) 0,73 h 5,4 km/h (1 Bft)
07.09.2009 18:00 24,4 C 25,1 C 0,7 UV-I 0,3 C 47 % 46 % 9 % 1022,6 hPa 0,0 l/m 0,7 km/h (0 Bft) 0,00 h 1,7 km/h (1 Bft)
07.09.2009 19:00 23,6 C 23,4 C 0,1 UV-I 0,0 C 50 % 54 % 0 % 1022,0 hPa 0,0 l/m 0,1 km/h (0 Bft) 0,00 h 0,0 km/h (0 Bft)
07.09.2009 20:00 23,0 C 20,7 C 0,0 UV-I 0,0 C 53 % 64 % 0 % 1022,1 hPa 0,0 l/m 0,0 km/h (0 Bft) 0,00 h 0,0 km/h (0 Bft)
07.09.2009 21:00 22,4 C 18,4 C 0,0 UV-I 0,0 C 56 % 71 % 0 % 1022,3 hPa 0,0 l/m 0,0 km/h (0 Bft) 0,00 h 0,0 km/h (0 Bft)
07.09.2009 22:00 22,0 C 16,8 C 0,0 UV-I 0,0 C 58 % 77 % 0 % 1022,4 hPa 0,0 l/m 0,0 km/h (0 Bft) 0,00 h 0,1 km/h (0 Bft)
07.09.2009 23:00 21,7 C 16,0 C 0,0 UV-I 0,0 C 59 % 81 % 0 % 1022,1 hPa 0,0 l/m 0,4 km/h (0 Bft) 0,00 h 1,5 km/h (1 Bft)
08.09.2009 00:00 21,5 C 15,3 C 0,0 UV-I 0,0 C 59 % 83 % 0 % 1022,1 hPa 0,0 l/m 0,3 km/h (0 Bft) 0,00 h 0,5 km/h (0 Bft)
08.09.2009 01:00 21,2 C 14,5 C 0,0 UV-I 0,0 C 59 % 84 % 0 % 1022,1 hPa 0,0 l/m 0,1 km/h (0 Bft) 0,00 h 0,6 km/h (0 Bft)
08.09.2009 02:00 21,0 C 13,9 C 0,0 UV-I 0,0 C 59 % 86 % 0 % 1022,2 hPa 0,0 l/m 0,1 km/h (0 Bft) 0,00 h 0,5 km/h (0 Bft)
08.09.2009 03:00 20,8 C 13,4 C 0,0 UV-I 0,0 C 59 % 87 % 0 % 1022,3 hPa 0,0 l/m 0,5 km/h (0 Bft) 0,00 h 2,0 km/h (1 Bft)
08.09.2009 04:00 20,6 C 13,2 C 0,0 UV-I 0,0 C 59 % 88 % 0 % 1022,3 hPa 0,0 l/m 0,9 km/h (0 Bft) 0,00 h 1,9 km/h (1 Bft)
08.09.2009 05:00 20,4 C 13,0 C 0,0 UV-I 0,0 C 59 % 89 % 0 % 1022,2 hPa 0,0 l/m 0,7 km/h (0 Bft) 0,00 h 1,6 km/h (1 Bft)
08.09.2009 06:00 20,2 C 12,8 C 0,0 UV-I 0,0 C 59 % 90 % 0 % 1022,3 hPa 0,0 l/m 0,5 km/h (0 Bft) 0,00 h 1,6 km/h (1 Bft)
08.09.2009 07:00 20,0 C 12,5 C 0,0 UV-I 0,0 C 60 % 90 % 0 % 1022,4 hPa 0,0 l/m 1,1 km/h (0 Bft) 0,00 h 3,2 km/h (1 Bft)
08.09.2009 08:00 20,0 C 13,2 C 0,5 UV-I 0,3 C 60 % 91 % 8 % 1022,3 hPa 0,0 l/m 1,7 km/h (1 Bft) 0,00 h 4,7 km/h (1 Bft)
08.09.2009 09:00 20,2 C 14,7 C 1,0 UV-I 1,6 C 61 % 89 % 40 % 1022,4 hPa 0,0 l/m 2,5 km/h (1 Bft) 0,13 h 5,2 km/h (1 Bft)
08.09.2009 10:00 20,5 C 17,5 C 5,9 UV-I 7,1 C 61 % 84 % 100 % 1022,8 hPa 0,0 l/m 2,9 km/h (1 Bft) 1,00 h 5,8 km/h (2 Bft)
08.09.2009 11:00 21,0 C 21,4 C 10,8 UV-I 6,2 C 61 % 72 % 100 % 1023,2 hPa 0,0 l/m 2,9 km/h (1 Bft) 1,00 h 6,3 km/h (2 Bft)
08.09.2009 12:00 21,5 C 25,0 C 10,8 UV-I 5,3 C 61 % 60 % 100 % 1023,0 hPa 0,0 l/m 2,6 km/h (1 Bft) 1,00 h 4,7 km/h (1 Bft)
08.09.2009 13:00 22,5 C 27,9 C 5,9 UV-I 4,4 C 60 % 50 % 99 % 1023,0 hPa 0,0 l/m 4,2 km/h (1 Bft) 1,00 h 7,2 km/h (2 Bft)
08.09.2009 14:00 24,2 C 30,1 C 8,9 UV-I 3,8 C 55 % 42 % 100 % 1025,4 hPa 0,0 l/m 4,2 km/h (1 Bft) 1,00 h 6,5 km/h (2 Bft)
08.09.2009 15:00 25,9 C 31,2 C 6,4 UV-I 3,9 C 48 % 35 % 99 % 1026,2 hPa 0,0 l/m 3,9 km/h (1 Bft) 1,00 h 6,2 km/h (2 Bft)
08.09.2009 16:00 27,3 C 31,7 C 1,7 UV-I 3,6 C 42 % 31 % 98 % 1026,2 hPa 0,0 l/m 4,6 km/h (1 Bft) 1,00 h 7,4 km/h (2 Bft)
08.09.2009 17:00 27,3 C 30,7 C 1,2 UV-I 3,5 C 39 % 29 % 93 % 1023,8 hPa 0,0 l/m 3,4 km/h (1 Bft) 0,80 h 5,1 km/h (1 Bft)
08.09.2009 18:00 25,9 C 29,0 C 0,4 UV-I 0,3 C 42 % 35 % 8 % 1022,3 hPa 0,0 l/m 1,2 km/h (1 Bft) 0,00 h 1,5 km/h (1 Bft)
08.09.2009 19:00 25,0 C 26,6 C 0,0 UV-I 0,0 C 47 % 48 % 0 % 1021,7 hPa 0,0 l/m 0,0 km/h (0 Bft) 0,00 h 0,0 km/h (0 Bft)
08.09.2009 20:00 24,4 C 23,5 C 0,0 UV-I 0,0 C 52 % 59 % 0 % 1021,5 hPa 0,0 l/m 0,0 km/h (0 Bft) 0,00 h 0,0 km/h (0 Bft)
08.09.2009 21:00 23,9 C 20,9 C 0,0 UV-I 0,0 C 55 % 67 % 0 % 1021,9 hPa 0,0 l/m 0,0 km/h (0 Bft) 0,00 h 0,0 km/h (0 Bft)
08.09.2009 22:00 23,4 C 19,1 C 0,0 UV-I 0,0 C 57 % 72 % 0 % 1021,9 hPa 0,0 l/m 0,3 km/h (0 Bft) 0,00 h 1,5 km/h (1 Bft)
08.09.2009 23:00 23,0 C 18,0 C 0,0 UV-I 0,0 C 57 % 74 % 0 % 1022,1 hPa 0,0 l/m 0,3 km/h (0 Bft) 0,00 h 0,5 km/h (0 Bft)
09.09.2009 00:00 22,8 C 16,7 C 0,0 UV-I 0,0 C 57 % 77 % 0 % 1022,2 hPa 0,0 l/m 0,0 km/h (0 Bft) 0,00 h 0,0 km/h (0 Bft)
09.09.2009 01:00 22,6 C 15,5 C 0,0 UV-I 0,0 C 57 % 80 % 0 % 1022,5 hPa 0,0 l/m 0,0 km/h (0 Bft) 0,00 h 0,0 km/h (0 Bft)
09.09.2009 02:00 22,3 C 14,5 C 0,0 UV-I 0,0 C 57 % 82 % 0 % 1022,6 hPa 0,0 l/m 0,0 km/h (0 Bft) 0,00 h 0,0 km/h (0 Bft)
09.09.2009 03:00 22,1 C 13,8 C 0,0 UV-I 0,0 C 57 % 84 % 0 % 1022,2 hPa 0,0 l/m 0,0 km/h (0 Bft) 0,00 h 0,0 km/h (0 Bft)
09.09.2009 04:00 21,9 C 13,8 C 0,0 UV-I 0,0 C 57 % 86 % 0 % 1022,4 hPa 0,0 l/m 1,0 km/h (0 Bft) 0,00 h 2,2 km/h (1 Bft)
09.09.2009 05:00 21,6 C 13,7 C 0,0 UV-I 0,0 C 57 % 86 % 0 % 1022,3 hPa 0,0 l/m 0,7 km/h (0 Bft) 0,00 h 1,0 km/h (0 Bft)
09.09.2009 06:00 21,4 C 13,6 C 0,0 UV-I 0,0 C 57 % 86 % 0 % 1022,5 hPa 0,0 l/m 0,2 km/h (0 Bft) 0,00 h 0,5 km/h (0 Bft)
09.09.2009 07:00 21,3 C 13,5 C 0,0 UV-I 0,1 C 57 % 86 % 4 % 1022,8 hPa 0,0 l/m 1,4 km/h (1 Bft) 0,00 h 2,7 km/h (1 Bft)
09.09.2009 08:00 21,2 C 14,0 C 0,4 UV-I 0,4 C 57 % 86 % 12 % 1023,6 hPa 0,0 l/m 0,6 km/h (0 Bft) 0,00 h 1,3 km/h (1 Bft)
09.09.2009 09:00 21,3 C 15,7 C 1,3 UV-I 2,0 C 58 % 85 % 52 % 1023,7 hPa 0,0 l/m 1,7 km/h (1 Bft) 0,13 h 2,7 km/h (1 Bft)
09.09.2009 10:00 21,7 C 18,6 C 5,6 UV-I 8,6 C 59 % 79 % 100 % 1024,2 hPa 0,0 l/m 0,9 km/h (0 Bft) 0,87 h 1,5 km/h (1 Bft)
09.09.2009 11:00 22,1 C 22,8 C 10,1 UV-I 7,7 C 58 % 64 % 100 % 1024,7 hPa 0,0 l/m 0,9 km/h (0 Bft) 0,78 h 1,1 km/h (0 Bft)
09.09.2009 12:00 22,6 C 25,8 C 10,0 UV-I 6,6 C 58 % 55 % 100 % 1025,0 hPa 0,0 l/m 1,2 km/h (1 Bft) 1,00 h 2,7 km/h (1 Bft)
09.09.2009 13:00 23,5 C 27,2 C 7,9 UV-I 5,4 C 59 % 50 % 100 % 1025,6 hPa 0,0 l/m 3,2 km/h (1 Bft) 0,97 h 6,7 km/h (2 Bft)
09.09.2009 14:00 24,6 C 27,7 C 7,6 UV-I 4,8 C 57 % 50 % 100 % 1027,6 hPa 0,0 l/m 3,3 km/h (1 Bft) 0,97 h 5,5 km/h (1 Bft)
09.09.2009 15:00 25,4 C 27,5 C 4,7 UV-I 3,3 C 54 % 51 % 91 % 1027,8 hPa 0,0 l/m 4,8 km/h (1 Bft) 0,77 h 6,2 km/h (2 Bft)
09.09.2009 16:00 26,0 C 26,5 C 2,6 UV-I 3,0 C 54 % 60 % 85 % 1028,2 hPa 0,0 l/m 6,7 km/h (2 Bft) 0,63 h 9,8 km/h (2 Bft)
09.09.2009 17:00 25,8 C 24,4 C 1,1 UV-I 0,7 C 54 % 67 % 21 % 1028,0 hPa 0,0 l/m 6,8 km/h (2 Bft) 0,07 h 9,2 km/h (2 Bft)
09.09.2009 18:00 25,0 C 22,1 C 0,3 UV-I 0,0 C 57 % 73 % 0 % 1027,6 hPa 0,0 l/m 5,9 km/h (2 Bft) 0,00 h 7,7 km/h (2 Bft)
09.09.2009 19:00 24,3 C 20,6 C 0,0 UV-I 0,0 C 58 % 76 % 0 % 1027,7 hPa 0,0 l/m 5,2 km/h (1 Bft) 0,00 h 6,8 km/h (2 Bft)
09.09.2009 20:00 23,8 C 19,1 C 0,0 UV-I 0,0 C 59 % 78 % 0 % 1028,1 hPa 0,0 l/m 6,3 km/h (2 Bft) 0,00 h 8,5 km/h (2 Bft)
09.09.2009 21:00 23,5 C 18,2 C 0,0 UV-I 0,0 C 59 % 80 % 0 % 1028,9 hPa 0,0 l/m 4,6 km/h (1 Bft) 0,00 h 6,3 km/h (2 Bft)
09.09.2009 22:00 23,2 C 17,7 C 0,0 UV-I 0,0 C 60 % 81 % 0 % 1029,2 hPa 0,0 l/m 3,8 km/h (1 Bft) 0,00 h 5,0 km/h (1 Bft)
09.09.2009 23:00 23,1 C 17,2 C 0,0 UV-I 0,0 C 60 % 80 % 0 % 1029,4 hPa 0,0 l/m 3,3 km/h (1 Bft) 0,00 h 4,9 km/h (1 Bft)
10.09.2009 00:00 22,9 C 16,7 C 0,0 UV-I 0,0 C 60 % 81 % 0 % 1029,5 hPa 0,0 l/m 3,7 km/h (1 Bft) 0,00 h 6,2 km/h (2 Bft)
10.09.2009 01:00 22,8 C 16,4 C 0,0 UV-I 0,0 C 60 % 82 % 0 % 1029,5 hPa 0,0 l/m 3,0 km/h (1 Bft) 0,00 h 4,2 km/h (1 Bft)
10.09.2009 02:00 22,6 C 16,0 C 0,0 UV-I 0,0 C 60 % 85 % 0 % 1029,6 hPa 0,0 l/m 3,3 km/h (1 Bft) 0,00 h 4,2 km/h (1 Bft)
10.09.2009 03:00 22,5 C 15,6 C 0,0 UV-I 0,0 C 60 % 87 % 0 % 1029,7 hPa 0,0 l/m 2,6 km/h (1 Bft) 0,00 h 3,7 km/h (1 Bft)
10.09.2009 04:00 22,4 C 15,4 C 0,0 UV-I 0,0 C 60 % 87 % 0 % 1029,9 hPa 0,0 l/m 2,7 km/h (1 Bft) 0,00 h 3,7 km/h (1 Bft)
10.09.2009 05:00 22,3 C 15,2 C 0,0 UV-I 0,0 C 61 % 87 % 0 % 1029,8 hPa 0,0 l/m 2,2 km/h (1 Bft) 0,00 h 3,6 km/h (1 Bft)
10.09.2009 06:00 22,2 C 15,1 C 0,0 UV-I 0,0 C 61 % 87 % 0 % 1029,9 hPa 0,0 l/m 1,8 km/h (1 Bft) 0,00 h 2,6 km/h (1 Bft)
10.09.2009 07:00 22,1 C 15,1 C 0,0 UV-I 0,0 C 60 % 87 % 0 % 1030,1 hPa 0,0 l/m 2,1 km/h (1 Bft) 0,00 h 3,1 km/h (1 Bft)
10.09.2009 08:00 22,0 C 15,5 C 0,0 UV-I 0,0 C 60 % 86 % 0 % 1030,3 hPa 0,0 l/m 2,8 km/h (1 Bft) 0,00 h 4,4 km/h (1 Bft)
10.09.2009 09:00 22,0 C 15,8 C 0,3 UV-I 0,1 C 60 % 85 % 2 % 1030,9 hPa 0,0 l/m 3,4 km/h (1 Bft) 0,00 h 4,8 km/h (1 Bft)
10.09.2009 10:00 22,0 C 16,0 C 0,4 UV-I 0,1 C 60 % 85 % 2 % 1031,5 hPa 0,0 l/m 2,7 km/h (1 Bft) 0,00 h 4,3 km/h (1 Bft)
10.09.2009 11:00 22,0 C 16,0 C 0,3 UV-I 0,0 C 60 % 86 % 0 % 1031,9 hPa 0,0 l/m 3,1 km/h (1 Bft) 0,00 h 4,8 km/h (1 Bft)
10.09.2009 12:00 22,0 C 16,1 C 0,6 UV-I 0,0 C 61 % 87 % 1 % 1032,0 hPa 0,0 l/m 3,1 km/h (1 Bft) 0,00 h 4,6 km/h (1 Bft)
10.09.2009 13:00 22,0 C 16,3 C 0,8 UV-I 0,0 C 61 % 86 % 1 % 1032,2 hPa 0,0 l/m 4,7 km/h (1 Bft) 0,00 h 6,5 km/h (2 Bft)
10.09.2009 14:00 22,0 C 16,3 C 0,8 UV-I 0,2 C 61 % 84 % 4 % 1032,6 hPa 0,0 l/m 4,9 km/h (1 Bft) 0,00 h 6,8 km/h (2 Bft)
10.09.2009 15:00 22,0 C 16,6 C 0,9 UV-I 0,3 C 60 % 80 % 9 % 1032,5 hPa 0,0 l/m 4,6 km/h (1 Bft) 0,00 h 5,8 km/h (2 Bft)
10.09.2009 16:00 22,1 C 17,4 C 1,0 UV-I 0,6 C 58 % 68 % 16 % 1032,6 hPa 0,0 l/m 4,7 km/h (1 Bft) 0,00 h 6,1 km/h (2 Bft)
10.09.2009 17:00 22,1 C 17,8 C 0,5 UV-I 0,1 C 57 % 66 % 4 % 1032,6 hPa 0,0 l/m 3,8 km/h (1 Bft) 0,00 h 5,0 km/h (1 Bft)
10.09.2009 18:00 22,2 C 18,0 C 0,1 UV-I 0,1 C 57 % 66 % 3 % 1032,8 hPa 0,0 l/m 1,4 km/h (1 Bft) 0,00 h 2,1 km/h (1 Bft)
10.09.2009 19:00 22,2 C 18,0 C 0,0 UV-I 0,0 C 57 % 66 % 0 % 1032,9 hPa 0,0 l/m 1,9 km/h (1 Bft) 0,00 h 3,5 km/h (1 Bft)
10.09.2009 20:00 22,1 C 17,7 C 0,0 UV-I 0,0 C 57 % 67 % 0 % 1033,2 hPa 0,0 l/m 2,0 km/h (1 Bft) 0,00 h 3,2 km/h (1 Bft)
10.09.2009 21:00 21,9 C 17,2 C 0,0 UV-I 0,0 C 55 % 68 % 0 % 1033,5 hPa 0,0 l/m 1,6 km/h (1 Bft) 0,00 h 2,4 km/h (1 Bft)
10.09.2009 22:00 21,4 C 16,5 C 0,0 UV-I 0,0 C 54 % 69 % 0 % 1033,5 hPa 0,0 l/m 2,6 km/h (1 Bft) 0,00 h 3,5 km/h (1 Bft)
10.09.2009 23:00 21,1 C 15,6 C 0,0 UV-I 0,0 C 53 % 70 % 0 % 1033,6 hPa 0,0 l/m 3,6 km/h (1 Bft) 0,00 h 4,6 km/h (1 Bft)
11.09.2009 00:00 20,8 C 14,4 C 0,0 UV-I 0,0 C 54 % 75 % 0 % 1033,8 hPa 0,0 l/m 2,9 km/h (1 Bft) 0,00 h 4,7 km/h (1 Bft)
11.09.2009 01:00 20,8 C 13,1 C 0,0 UV-I 0,0 C 55 % 80 % 0 % 1034,3 hPa 0,0 l/m 1,5 km/h (1 Bft) 0,00 h 2,5 km/h (1 Bft)
11.09.2009 02:00 20,8 C 12,3 C 0,0 UV-I 0,0 C 55 % 84 % 0 % 1034,4 hPa 0,0 l/m 1,3 km/h (1 Bft) 0,00 h 2,0 km/h (1 Bft)
11.09.2009 03:00 20,7 C 11,4 C 0,0 UV-I 0,0 C 56 % 87 % 0 % 1034,2 hPa 0,0 l/m 0,1 km/h (0 Bft) 0,00 h 0,5 km/h (0 Bft)
11.09.2009 04:00 20,5 C 10,6 C 0,0 UV-I 0,0 C 55 % 88 % 0 % 1034,0 hPa 0,0 l/m 0,0 km/h (0 Bft) 0,00 h 0,0 km/h (0 Bft)
11.09.2009 05:00 20,1 C 9,7 C 0,0 UV-I 0,0 C 54 % 89 % 0 % 1033,8 hPa 0,0 l/m 0,1 km/h (0 Bft) 0,00 h 0,2 km/h (0 Bft)
11.09.2009 06:00 20,0 C 9,9 C 0,0 UV-I 0,0 C 56 % 92 % 0 % 1034,0 hPa 0,0 l/m 0,6 km/h (0 Bft) 0,00 h 0,8 km/h (0 Bft)
11.09.2009 07:00 20,1 C 10,7 C 0,0 UV-I 0,0 C 56 % 92 % 0 % 1034,1 hPa 0,0 l/m 0,7 km/h (0 Bft) 0,00 h 1,3 km/h (1 Bft)
11.09.2009 08:00 20,3 C 11,4 C 0,5 UV-I 0,0 C 56 % 91 % 1 % 1034,7 hPa 0,0 l/m 1,1 km/h (0 Bft) 0,00 h 1,7 km/h (1 Bft)
11.09.2009 09:00 20,5 C 12,6 C 1,3 UV-I 1,2 C 56 % 89 % 34 % 1034,9 hPa 0,0 l/m 2,3 km/h (1 Bft) 0,00 h 3,9 km/h (1 Bft)
11.09.2009 10:00 20,8 C 14,0 C 1,7 UV-I 1,7 C 56 % 84 % 48 % 1034,9 hPa 0,0 l/m 2,4 km/h (1 Bft) 0,00 h 3,9 km/h (1 Bft)
11.09.2009 11:00 21,1 C 16,3 C 8,8 UV-I 6,0 C 56 % 74 % 99 % 1034,9 hPa 0,0 l/m 3,7 km/h (1 Bft) 0,97 h 6,0 km/h (2 Bft)
11.09.2009 12:00 21,4 C 17,7 C 3,5 UV-I 2,1 C 55 % 64 % 60 % 1034,5 hPa 0,0 l/m 4,2 km/h (1 Bft) 0,17 h 5,5 km/h (1 Bft)
11.09.2009 13:00 21,9 C 19,2 C 3,6 UV-I 3,4 C 53 % 60 % 83 % 1034,1 hPa 0,0 l/m 2,7 km/h (1 Bft) 0,57 h 3,7 km/h (1 Bft)
11.09.2009 14:00 22,5 C 19,7 C 4,7 UV-I 2,8 C 52 % 56 % 76 % 1034,2 hPa 0,0 l/m 4,1 km/h (1 Bft) 0,30 h 6,5 km/h (2 Bft)
11.09.2009 15:00 23,1 C 20,0 C 2,7 UV-I 2,2 C 50 % 54 % 58 % 1034,1 hPa 0,0 l/m 4,6 km/h (1 Bft) 0,23 h 7,3 km/h (2 Bft)
11.09.2009 16:00 23,7 C 20,3 C 1,9 UV-I 2,2 C 47 % 52 % 60 % 1034,1 hPa 0,0 l/m 3,8 km/h (1 Bft) 0,23 h 5,5 km/h (1 Bft)
11.09.2009 17:00 23,9 C 20,1 C 1,3 UV-I 2,7 C 47 % 53 % 72 % 1033,0 hPa 0,0 l/m 4,1 km/h (1 Bft) 0,33 h 6,9 km/h (2 Bft)
11.09.2009 18:00 23,2 C 19,5 C 0,4 UV-I 0,4 C 47 % 57 % 11 % 1032,3 hPa 0,0 l/m 5,2 km/h (1 Bft) 0,00 h 7,3 km/h (2 Bft)
11.09.2009 19:00 22,5 C 18,2 C 0,0 UV-I 0,0 C 50 % 65 % 0 % 1031,7 hPa 0,0 l/m 4,3 km/h (1 Bft) 0,00 h 6,0 km/h (2 Bft)
11.09.2009 20:00 21,9 C 17,5 C 0,0 UV-I 0,0 C 52 % 67 % 0 % 1031,6 hPa 0,0 l/m 3,1 km/h (1 Bft) 0,00 h 4,5 km/h (1 Bft)
11.09.2009 21:00 21,6 C 16,6 C 0,0 UV-I 0,0 C 53 % 71 % 0 % 1031,8 hPa 0,0 l/m 2,8 km/h (1 Bft) 0,00 h 4,1 km/h (1 Bft)
11.09.2009 22:00 21,3 C 15,7 C 0,0 UV-I 0,0 C 54 % 76 % 0 % 1031,6 hPa 0,0 l/m 2,3 km/h (1 Bft) 0,00 h 4,1 km/h (1 Bft)
11.09.2009 23:00 21,2 C 15,4 C 0,0 UV-I 0,0 C 55 % 77 % 0 % 1031,4 hPa 0,0 l/m 2,4 km/h (1 Bft) 0,00 h 3,7 km/h (1 Bft)
12.09.2009 00:00 21,1 C 15,0 C 0,0 UV-I 0,0 C 55 % 77 % 0 % 1031,2 hPa 0,0 l/m 2,1 km/h (1 Bft) 0,00 h 3,4 km/h (1 Bft)
12.09.2009 01:00 21,0 C 14,4 C 0,0 UV-I 0,0 C 55 % 79 % 0 % 1031,0 hPa 0,0 l/m 1,9 km/h (1 Bft) 0,00 h 4,0 km/h (1 Bft)
12.09.2009 02:00 20,9 C 13,7 C 0,0 UV-I 0,0 C 55 % 81 % 0 % 1030,5 hPa 0,0 l/m 1,4 km/h (1 Bft) 0,00 h 2,6 km/h (1 Bft)
12.09.2009 03:00 20,8 C 13,1 C 0,0 UV-I 0,0 C 56 % 84 % 0 % 1030,1 hPa 0,0 l/m 1,5 km/h (1 Bft) 0,00 h 2,9 km/h (1 Bft)
12.09.2009 04:00 20,6 C 12,3 C 0,0 UV-I 0,0 C 56 % 85 % 0 % 1029,5 hPa 0,0 l/m 0,1 km/h (0 Bft) 0,00 h 0,3 km/h (0 Bft)
12.09.2009 05:00 20,5 C 11,9 C 0,0 UV-I 0,0 C 55 % 87 % 0 % 1029,3 hPa 0,0 l/m 0,1 km/h (0 Bft) 0,00 h 0,4 km/h (0 Bft)
12.09.2009 06:00 20,4 C 11,5 C 0,0 UV-I 0,0 C 56 % 88 % 0 % 1029,1 hPa 0,0 l/m 0,1 km/h (0 Bft) 0,00 h 0,0 km/h (0 Bft)
12.09.2009 07:00 20,2 C 10,6 C 0,0 UV-I 0,0 C 55 % 89 % 0 % 1029,0 hPa 0,0 l/m 0,0 km/h (0 Bft) 0,00 h 0,0 km/h (0 Bft)
12.09.2009 08:00 20,1 C 11,3 C 0,3 UV-I 0,3 C 56 % 92 % 9 % 1029,0 hPa 0,0 l/m 1,0 km/h (0 Bft) 0,00 h 2,3 km/h (1 Bft)
12.09.2009 09:00 20,3 C 12,9 C 1,2 UV-I 1,7 C 57 % 91 % 49 % 1029,2 hPa 0,0 l/m 2,2 km/h (1 Bft) 0,20 h 3,6 km/h (1 Bft)
12.09.2009 10:00 20,3 C 14,6 C 2,5 UV-I 2,2 C 58 % 85 % 60 % 1029,2 hPa 0,0 l/m 3,6 km/h (1 Bft) 0,30 h 5,6 km/h (1 Bft)
12.09.2009 11:00 20,6 C 16,4 C 7,7 UV-I 4,9 C 57 % 77 % 90 % 1029,4 hPa 0,0 l/m 2,4 km/h (1 Bft) 0,73 h 4,2 km/h (1 Bft)
12.09.2009 12:00 21,1 C 18,4 C 7,0 UV-I 4,1 C 56 % 66 % 85 % 1028,9 hPa 0,0 l/m 3,2 km/h (1 Bft) 0,60 h 5,2 km/h (1 Bft)
12.09.2009 13:00 21,7 C 19,3 C 5,2 UV-I 3,2 C 54 % 61 % 81 % 1028,9 hPa 0,0 l/m 3,9 km/h (1 Bft) 0,57 h 5,1 km/h (1 Bft)
12.09.2009 14:00 22,4 C 19,8 C 3,9 UV-I 2,3 C 52 % 61 % 61 % 1029,1 hPa 0,0 l/m 4,7 km/h (1 Bft) 0,23 h 5,8 km/h (2 Bft)
12.09.2009 15:00 22,6 C 19,7 C 2,7 UV-I 1,5 C 52 % 63 % 44 % 1028,9 hPa 0,0 l/m 4,3 km/h (1 Bft) 0,00 h 6,0 km/h (2 Bft)
12.09.2009 16:00 22,8 C 19,8 C 2,2 UV-I 1,7 C 52 % 62 % 48 % 1028,4 hPa 0,0 l/m 4,4 km/h (1 Bft) 0,00 h 5,3 km/h (1 Bft)
12.09.2009 17:00 23,3 C 19,7 C 1,6 UV-I 3,4 C 50 % 61 % 88 % 1027,8 hPa 0,0 l/m 4,8 km/h (1 Bft) 0,70 h 6,6 km/h (2 Bft)
12.09.2009 18:00 23,0 C 19,3 C 0,7 UV-I 0,4 C 50 % 63 % 12 % 1027,4 hPa 0,0 l/m 3,5 km/h (1 Bft) 0,00 h 4,6 km/h (1 Bft)
12.09.2009 19:00 22,4 C 18,5 C 0,0 UV-I 0,0 C 52 % 67 % 0 % 1026,6 hPa 0,0 l/m 0,4 km/h (0 Bft) 0,00 h 0,3 km/h (0 Bft)
12.09.2009 20:00 21,9 C 17,3 C 0,0 UV-I 0,0 C 54 % 71 % 0 % 1026,3 hPa 0,0 l/m 0,0 km/h (0 Bft) 0,00 h 0,0 km/h (0 Bft)
12.09.2009 21:00 21,5 C 16,2 C 0,0 UV-I 0,0 C 55 % 75 % 0 % 1026,3 hPa 0,0 l/m 0,5 km/h (0 Bft) 0,00 h 1,2 km/h (1 Bft)
12.09.2009 22:00 21,3 C 15,5 C 0,0 UV-I 0,0 C 56 % 77 % 0 % 1026,2 hPa 0,0 l/m 1,3 km/h (1 Bft) 0,00 h 2,1 km/h (1 Bft)
12.09.2009 23:00 21,1 C 14,4 C 0,0 UV-I 0,0 C 56 % 80 % 0 % 1026,2 hPa 0,0 l/m 0,7 km/h (0 Bft) 0,00 h 1,2 km/h (1 Bft)
13.09.2009 00:00 20,8 C 13,0 C 0,0 UV-I 0,0 C 56 % 83 % 0 % 1025,7 hPa 0,0 l/m 0,0 km/h (0 Bft) 0,00 h 0,0 km/h (0 Bft)
13.09.2009 01:00 20,5 C 11,6 C 0,0 UV-I 0,0 C 55 % 85 % 0 % 1025,6 hPa 0,0 l/m 0,0 km/h (0 Bft) 0,00 h 0,0 km/h (0 Bft)
13.09.2009 02:00 20,1 C 10,7 C 0,0 UV-I 0,0 C 55 % 87 % 0 % 1025,2 hPa 0,0 l/m 0,0 km/h (0 Bft) 0,00 h 0,0 km/h (0 Bft)
13.09.2009 03:00 19,9 C 10,1 C 0,0 UV-I 0,0 C 56 % 89 % 0 % 1024,9 hPa 0,0 l/m 0,0 km/h (0 Bft) 0,00 h 0,0 km/h (0 Bft)
13.09.2009 04:00 19,7 C 10,3 C 0,0 UV-I 0,0 C 56 % 91 % 0 % 1024,3 hPa 0,0 l/m 0,1 km/h (0 Bft) 0,00 h 0,2 km/h (0 Bft)
13.09.2009 05:00 19,5 C 10,4 C 0,0 UV-I 0,0 C 56 % 91 % 0 % 1024,0 hPa 0,0 l/m 0,2 km/h (0 Bft) 0,00 h 0,5 km/h (0 Bft)
13.09.2009 06:00 19,4 C 10,9 C 0,0 UV-I 0,0 C 58 % 92 % 0 % 1023,5 hPa 0,0 l/m 0,1 km/h (0 Bft) 0,00 h 0,4 km/h (0 Bft)
13.09.2009 07:00 19,5 C 11,5 C 0,0 UV-I 0,0 C 58 % 93 % 0 % 1023,4 hPa 0,0 l/m 0,4 km/h (0 Bft) 0,00 h 1,1 km/h (1 Bft)
13.09.2009 08:00 19,6 C 12,1 C 0,1 UV-I 0,0 C 59 % 93 % 0 % 1023,1 hPa 0,1 l/m 0,8 km/h (0 Bft) 0,00 h 1,4 km/h (1 Bft)
13.09.2009 09:00 19,9 C 13,0 C 1,0 UV-I 0,5 C 60 % 93 % 15 % 1023,2 hPa 0,0 l/m 1,5 km/h (1 Bft) 0,00 h 3,0 km/h (1 Bft)
13.09.2009 10:00 20,2 C 14,4 C 2,0 UV-I 1,9 C 60 % 91 % 54 % 1023,1 hPa 0,0 l/m 3,4 km/h (1 Bft) 0,00 h 5,8 km/h (2 Bft)
13.09.2009 11:00 20,6 C 15,7 C 3,0 UV-I 2,1 C 59 % 84 % 61 % 1022,8 hPa 0,0 l/m 4,9 km/h (1 Bft) 0,00 h 6,3 km/h (2 Bft)
13.09.2009 12:00 20,8 C 16,0 C 1,4 UV-I 0,7 C 58 % 79 % 20 % 1022,6 hPa 0,0 l/m 3,5 km/h (1 Bft) 0,00 h 4,6 km/h (1 Bft)
13.09.2009 13:00 21,1 C 16,6 C 4,2 UV-I 2,8 C 58 % 75 % 73 % 1022,3 hPa 0,0 l/m 4,4 km/h (1 Bft) 0,57 h 7,0 km/h (2 Bft)
13.09.2009 14:00 21,3 C 17,0 C 2,3 UV-I 1,0 C 56 % 72 % 30 % 1021,7 hPa 0,0 l/m 4,1 km/h (1 Bft) 0,00 h 5,7 km/h (1 Bft)
13.09.2009 15:00 21,6 C 17,5 C 1,5 UV-I 0,9 C 55 % 67 % 26 % 1021,3 hPa 0,0 l/m 4,8 km/h (1 Bft) 0,00 h 8,1 km/h (2 Bft)
13.09.2009 16:00 21,5 C 16,9 C 1,0 UV-I 0,3 C 56 % 74 % 7 % 1020,7 hPa 0,6 l/m 4,1 km/h (1 Bft) 0,00 h 6,5 km/h (2 Bft)
13.09.2009 17:00 21,5 C 15,6 C 0,7 UV-I 0,0 C 57 % 84 % 0 % 1020,1 hPa 0,0 l/m 3,0 km/h (1 Bft) 0,00 h 4,8 km/h (1 Bft)
13.09.2009 18:00 21,1 C 15,5 C 0,5 UV-I 0,1 C 59 % 84 % 2 % 1020,3 hPa 0,2 l/m 3,8 km/h (1 Bft) 0,00 h 4,9 km/h (1 Bft)
13.09.2009 19:00 20,7 C 15,2 C 0,0 UV-I 0,0 C 60 % 84 % 0 % 1020,1 hPa 0,0 l/m 1,3 km/h (1 Bft) 0,00 h 1,3 km/h (1 Bft)
13.09.2009 20:00 20,5 C 14,2 C 0,0 UV-I 0,0 C 60 % 86 % 0 % 1020,3 hPa 0,0 l/m 0,7 km/h (0 Bft) 0,00 h 1,4 km/h (1 Bft)
13.09.2009 21:00 19,9 C 13,7 C 0,0 UV-I 0,0 C 59 % 85 % 0 % 1020,8 hPa 0,0 l/m 1,8 km/h (1 Bft) 0,00 h 3,1 km/h (1 Bft)
13.09.2009 22:00 19,6 C 13,2 C 0,0 UV-I 0,0 C 59 % 85 % 0 % 1020,9 hPa 0,0 l/m 1,1 km/h (1 Bft) 0,00 h 2,0 km/h (1 Bft)
13.09.2009 23:00 19,2 C 12,6 C 0,0 UV-I 0,0 C 59 % 87 % 0 % 1020,7 hPa 0,0 l/m 1,2 km/h (1 Bft) 0,00 h 1,5 km/h (1 Bft)
Min-Datum _ 07.09.09 11.09.09 07.09.09 07.09.09 08.09.09 08.09.09 07.09.09 13.09.09 - 07.09.09 - 07.09.09
_ Min-Zeit 07:10 05:29 00:00 00:00 17:16 16:56 00:00 17:36 - 00:00 - 00:00
Minimum _ 18,7 C 9,6 C 0,0 UV-I 0,0 C 39 % 28 % 0 % 1019,6 hPa - 0,0 km/h (0 Bft) - 0,0 km/h (0 Bft)
Max-Datum _ 08.09.09 08.09.09 11.09.09 09.09.09 08.09.09 11.09.09 07.09.09 11.09.09 13.09.09 08.09.09 07.09.09 13.09.09
_ Max-Zeit 16:58 16:18 11:34 10:42 08:46 06:54 10:24 15:56 16:52 16:34 10:16 15:06
Maximum _ 27,7 C 31,9 C 12,6 UV-I 10,0 C 61 % 93 % 100 % 1035,2 hPa 0,6 l/m 7,9 km/h
NO (2 Bft)
0,03 h 23,6 km/h
W-SW (4 Bft)
Durchschnitt _ 21,7 C 16,8 C 1,4 UV-I 1,1 C 56 % 76 % 24 % 1026,7 hPa #0,9 l/m 2,2 km/h (1 Bft) #26:33 h 3,5 km/h (1 Bft)
© 2012 W. Hausmann